createdAt,value
2022-10-16T00:02:53.975Z,100129.72
2022-10-16T00:07:54.743Z,100127.34
2022-10-16T00:12:57.203Z,100129.22
2022-10-16T00:17:59.566Z,100143.34
2022-10-16T00:23:07.845Z,100153.03
2022-10-16T00:28:08.807Z,100151.41
2022-10-16T00:33:16.675Z,100142.63
2022-10-16T00:38:17.575Z,100147.78
2022-10-16T00:43:39.655Z,100151.28
2022-10-16T00:48:42.262Z,100160.97
2022-10-16T00:53:43.195Z,100167.06
2022-10-16T00:58:48.782Z,100170.00
2022-10-16T01:03:52.289Z,100172.41
2022-10-16T01:09:17.066Z,100160.72
2022-10-16T01:14:24.384Z,100174.28
2022-10-16T01:19:50.793Z,100169.09
2022-10-16T01:24:52.573Z,100171.38
2022-10-16T01:30:01.313Z,100174.50
2022-10-16T01:35:11.507Z,100179.63
2022-10-16T01:40:15.332Z,100190.03
2022-10-16T01:45:21.971Z,100183.66
2022-10-16T01:50:23.637Z,100192.25
2022-10-16T01:55:29.132Z,100180.84
2022-10-16T02:00:32.533Z,100178.06
2022-10-16T02:05:42.031Z,100188.59
2022-10-16T02:10:43.217Z,100187.53
2022-10-16T02:15:50.103Z,100186.53
2022-10-16T02:20:54.905Z,100191.91
2022-10-16T02:26:01.882Z,100195.59
2022-10-16T02:31:13.518Z,100202.91
2022-10-16T02:36:14.792Z,100190.84
2022-10-16T02:41:19.940Z,100186.25
2022-10-16T02:46:22.183Z,100199.19
2022-10-16T02:51:22.942Z,100195.44
2022-10-16T02:56:24.340Z,100174.53
2022-10-16T03:01:26.864Z,100188.56
2022-10-16T03:06:27.714Z,100178.63
2022-10-16T03:11:29.195Z,100182.16
2022-10-16T03:16:31.551Z,100190.28
2022-10-16T03:21:32.352Z,100187.91
2022-10-16T03:26:33.265Z,100193.31
2022-10-16T03:31:35.748Z,100205.16
2022-10-16T03:36:36.641Z,100192.19
2022-10-16T03:41:37.412Z,100206.28
2022-10-16T03:46:39.671Z,100210.84
2022-10-16T03:51:40.451Z,100215.38
2022-10-16T03:56:41.267Z,100221.75
2022-10-16T04:01:43.464Z,100228.78
2022-10-16T04:06:44.244Z,100222.69
2022-10-16T04:11:45.049Z,100231.09
2022-10-16T04:16:47.161Z,100238.34
2022-10-16T04:21:47.977Z,100243.53
2022-10-16T04:26:48.797Z,100246.88
2022-10-16T04:31:51.013Z,100243.31
2022-10-16T04:36:51.981Z,100236.13
2022-10-16T04:41:52.756Z,100250.28
2022-10-16T04:46:54.892Z,100245.31
2022-10-16T04:51:55.668Z,100252.25
2022-10-16T04:56:56.540Z,100256.56
2022-10-16T05:01:58.799Z,100244.38
2022-10-16T05:06:59.594Z,100247.75
2022-10-16T05:12:00.397Z,100255.41
2022-10-16T05:17:02.900Z,100255.72
2022-10-16T05:22:03.721Z,100260.19
2022-10-16T05:27:04.681Z,100262.84
2022-10-16T05:32:06.814Z,100265.41
2022-10-16T05:37:07.734Z,100272.44
2022-10-16T05:42:08.659Z,100267.25
2022-10-16T05:47:11.748Z,100277.63
2022-10-16T05:52:13.607Z,100279.81
2022-10-16T05:57:14.535Z,100298.81
2022-10-16T06:02:17.008Z,100316.44
2022-10-16T06:07:17.969Z,100302.13
2022-10-16T06:12:19.265Z,100304.78
2022-10-16T06:17:21.440Z,100312.78
2022-10-16T06:22:22.427Z,100326.81
2022-10-16T06:27:23.337Z,100331.50
2022-10-16T06:32:25.631Z,100336.22
2022-10-16T06:37:27.070Z,100342.81
2022-10-16T06:42:28.382Z,100338.75
2022-10-16T06:47:32.027Z,100342.25
2022-10-16T06:52:32.892Z,100357.59
2022-10-16T06:57:33.786Z,100365.16
2022-10-16T07:02:36.025Z,100364.00
2022-10-16T07:07:36.853Z,100381.63
2022-10-16T07:12:37.705Z,100378.81
2022-10-16T07:17:39.875Z,100364.81
2022-10-16T07:22:40.801Z,100385.34
2022-10-16T07:27:41.625Z,100396.91
2022-10-16T07:32:43.760Z,100410.06
2022-10-16T07:37:46.773Z,100420.69
2022-10-16T07:42:47.558Z,100431.25
2022-10-16T07:47:49.721Z,100434.47
2022-10-16T07:52:50.508Z,100437.81
2022-10-16T07:57:51.427Z,100440.09
2022-10-16T08:02:53.575Z,100437.22
2022-10-16T08:07:54.349Z,100433.47
2022-10-16T08:12:55.591Z,100412.78
2022-10-16T08:17:59.847Z,100411.00
2022-10-16T08:23:01.045Z,100425.69
2022-10-16T08:28:01.892Z,100416.44
2022-10-16T08:33:04.699Z,100425.31
2022-10-16T08:38:05.628Z,100425.53
2022-10-16T08:43:29.633Z,100443.00
2022-10-16T08:48:38.854Z,100436.16
2022-10-16T08:53:45.273Z,100430.56
2022-10-16T09:04:09.649Z,100425.94
2022-10-16T09:09:33.538Z,100420.47
2022-10-16T09:14:49.331Z,100417.81
2022-10-16T09:19:56.366Z,100416.13
2022-10-16T09:24:57.427Z,100430.88
2022-10-16T09:29:59.829Z,100442.06
2022-10-16T09:35:03.127Z,100435.50
2022-10-16T09:40:07.478Z,100434.66
2022-10-16T09:45:25.074Z,100443.09
2022-10-16T09:50:29.578Z,100450.22
2022-10-16T09:56:01.209Z,100438.34
2022-10-16T10:01:03.412Z,100446.34
2022-10-16T10:06:19.518Z,100455.13
2022-10-16T10:11:20.412Z,100446.22
2022-10-16T10:16:26.028Z,100448.19
2022-10-16T10:21:28.272Z,100467.28
2022-10-16T10:26:34.403Z,100469.06
2022-10-16T10:31:45.155Z,100474.13
2022-10-16T10:36:54.454Z,100474.47
2022-10-16T10:42:16.333Z,100478.25
2022-10-16T10:47:29.172Z,100471.25
2022-10-16T10:52:45.390Z,100478.34
2022-10-16T10:57:58.985Z,100473.28
2022-10-16T11:03:09.586Z,100478.84
2022-10-16T11:08:18.038Z,100479.03
2022-10-16T11:13:26.810Z,100464.59
2022-10-16T11:18:34.602Z,100478.31
2022-10-16T11:23:43.572Z,100473.97
2022-10-16T11:28:49.813Z,100479.53
2022-10-16T11:33:56.918Z,100475.16
2022-10-16T11:39:05.256Z,100484.34
2022-10-16T11:44:20.591Z,100487.16
2022-10-16T11:49:26.293Z,100491.97
2022-10-16T11:54:34.542Z,100492.44
2022-10-16T11:59:43.442Z,100491.81
2022-10-16T12:04:47.998Z,100497.13
2022-10-16T12:09:50.588Z,100498.41
2022-10-16T12:15:22.464Z,100494.16
2022-10-16T12:20:28.315Z,100493.03
2022-10-16T12:25:32.629Z,100485.09
2022-10-16T12:30:36.552Z,100490.44
2022-10-16T12:36:29.339Z,100503.63
2022-10-16T12:42:04.028Z,100498.31
2022-10-16T12:47:07.574Z,100507.22
2022-10-16T12:52:28.454Z,100517.41
2022-10-16T12:58:12.192Z,100512.72
2022-10-16T13:03:51.600Z,100515.97
2022-10-16T13:09:16.882Z,100514.19
2022-10-16T13:20:01.558Z,100513.66
2022-10-16T13:25:19.884Z,100519.03
2022-10-16T13:40:35.634Z,100515.38
2022-10-16T13:45:37.937Z,100518.84
2022-10-16T13:50:38.790Z,100524.94
2022-10-16T13:55:39.723Z,100541.84
2022-10-16T14:00:43.498Z,100538.59
2022-10-16T14:05:49.423Z,100549.44
2022-10-16T14:10:52.898Z,100553.06
2022-10-16T14:15:55.981Z,100550.13
2022-10-16T14:21:01.515Z,100556.75
2022-10-16T14:26:15.342Z,100554.97
2022-10-16T14:31:30.761Z,100559.50
2022-10-16T14:36:32.540Z,100550.50
2022-10-16T14:41:35.720Z,100556.94
2022-10-16T14:46:40.019Z,100552.88
2022-10-16T14:51:42.001Z,100567.72
2022-10-16T14:56:50.811Z,100570.16
2022-10-16T15:01:53.201Z,100573.03
2022-10-16T15:06:54.001Z,100585.19
2022-10-16T15:11:54.920Z,100591.03
2022-10-16T15:16:57.131Z,100589.97
2022-10-16T15:21:58.263Z,100603.13
2022-10-16T15:27:01.253Z,100614.09
2022-10-16T15:32:03.536Z,100626.63
2022-10-16T15:37:05.638Z,100627.06
2022-10-16T15:42:07.050Z,100630.53
2022-10-16T15:47:10.138Z,100647.97
2022-10-16T15:52:11.042Z,100648.94
2022-10-16T15:57:11.869Z,100657.06
2022-10-16T16:02:14.064Z,100653.59
2022-10-16T16:07:15.325Z,100654.28
2022-10-16T16:12:16.143Z,100664.38
2022-10-16T16:17:18.740Z,100673.09
2022-10-16T16:22:19.835Z,100671.69
2022-10-16T16:27:20.839Z,100678.88
2022-10-16T16:32:23.906Z,100690.16
2022-10-16T16:37:25.071Z,100707.09
2022-10-16T16:42:26.793Z,100716.75
2022-10-16T16:47:29.276Z,100718.25
2022-10-16T16:52:31.387Z,100740.56
2022-10-16T16:57:32.330Z,100750.81
2022-10-16T17:02:34.802Z,100743.34
2022-10-16T17:07:36.498Z,100755.44
2022-10-16T17:12:37.388Z,100779.66
2022-10-16T17:17:39.690Z,100780.22
2022-10-16T17:22:41.619Z,100781.66
2022-10-16T17:27:42.414Z,100787.28
2022-10-16T17:32:44.637Z,100797.22
2022-10-16T17:37:45.545Z,100795.63
2022-10-16T17:42:46.382Z,100798.72
2022-10-16T17:47:48.634Z,100809.47
2022-10-16T17:52:49.444Z,100816.66
2022-10-16T17:57:50.336Z,100825.41
2022-10-16T18:02:52.595Z,100834.59
2022-10-16T18:07:53.579Z,100849.25
2022-10-16T18:12:54.454Z,100853.06
2022-10-16T18:17:56.723Z,100859.72
2022-10-16T18:22:57.689Z,100859.66
2022-10-16T18:27:58.513Z,100868.34
2022-10-16T18:33:00.741Z,100884.97
2022-10-16T18:38:01.649Z,100886.13
2022-10-16T18:43:02.543Z,100895.81
2022-10-16T18:48:05.138Z,100883.66
2022-10-16T18:53:05.962Z,100896.00
2022-10-16T18:58:06.949Z,100891.34
2022-10-16T19:03:09.239Z,100887.31
2022-10-16T19:08:10.085Z,100876.53
2022-10-16T19:13:11.189Z,100879.44
2022-10-16T19:18:13.508Z,100882.84
2022-10-16T19:23:14.630Z,100895.13
2022-10-16T19:28:15.530Z,100900.22
2022-10-16T19:33:17.832Z,100912.50
2022-10-16T19:38:18.677Z,100924.78
2022-10-16T19:43:19.541Z,100929.28
2022-10-16T19:53:29.276Z,100934.03
2022-10-16T19:58:30.210Z,100944.56
2022-10-16T20:03:32.419Z,100940.31
2022-10-16T20:08:33.586Z,100936.78
2022-10-16T20:13:38.360Z,100942.09
2022-10-16T20:18:43.133Z,100934.03
2022-10-16T20:23:44.734Z,100932.56
2022-10-16T20:28:45.895Z,100944.84
2022-10-16T20:33:48.148Z,100932.97
2022-10-16T20:38:49.091Z,100944.22
2022-10-16T20:43:53.199Z,100951.84
2022-10-16T20:49:02.340Z,100951.88
2022-10-16T20:54:12.904Z,100953.84
2022-10-16T20:59:13.912Z,100965.31
2022-10-16T21:04:17.093Z,100973.63
2022-10-16T21:09:18.140Z,100981.84
2022-10-16T21:14:18.969Z,100987.44
2022-10-16T21:19:21.092Z,100994.78
2022-10-16T21:24:22.030Z,100995.81
2022-10-16T21:29:22.808Z,100999.56
2022-10-16T21:34:25.126Z,101012.00
2022-10-16T21:39:25.937Z,101011.47
2022-10-16T21:44:26.733Z,101014.41
2022-10-16T21:49:29.070Z,101018.06
2022-10-16T21:54:29.915Z,101016.66
2022-10-16T21:59:30.879Z,101017.44
2022-10-16T22:04:33.179Z,101016.63
2022-10-16T22:09:33.995Z,101008.00
2022-10-16T22:14:34.847Z,101010.66
2022-10-16T22:19:37.074Z,101011.56
2022-10-16T22:24:38.425Z,101016.06
2022-10-16T22:29:39.217Z,101024.78
2022-10-16T22:34:41.416Z,101036.41
2022-10-16T22:39:42.196Z,101047.06
2022-10-16T22:44:42.973Z,101049.00
2022-10-16T22:49:45.117Z,101039.50
2022-10-16T22:54:45.903Z,101030.91
2022-10-16T22:59:48.468Z,101037.13
2022-10-16T23:04:50.840Z,101032.03
2022-10-16T23:09:51.677Z,101042.53
2022-10-16T23:14:52.572Z,101040.00
2022-10-16T23:19:54.722Z,101041.06
2022-10-16T23:24:55.552Z,101049.72
2022-10-16T23:29:56.443Z,101054.91
2022-10-16T23:34:58.578Z,101055.72
2022-10-16T23:39:59.352Z,101064.63
2022-10-16T23:45:00.328Z,101056.88
2022-10-16T23:50:02.637Z,101060.56
2022-10-16T23:55:03.622Z,101061.50
